Coningsby RAF, United Kingdom

3:02 PM GMT on February 21, 2017 (GMT +0000)
Coningsby Air Base | | Change Station

Elev 23 ft 53.08 °N, 0.17 °W | Updated 12 minutes ago

Mostly Cloudy
Mostly Cloudy
54 °F
Feels Like 54 °F
N
12
Wind Variable Wind from SSW

Today
High -- | Low -- °F
--% Chance of Precip.
Yesterday
High -- | Low -- °F
Precip. -- in
Pressure 29.86 in
Visibility 6.2 miles
Clouds Mostly Cloudy 1800 ft
Dew Point 48 °F
Humidity 82%
Rainfall 0.00 in
Snow Depth Not available.
7:05 AM 5:24 PM
Waning Crescent, 25% visible
METAR EGXC 211450Z 21010KT 9999 BKN018 12/09 Q1011 WHT TEMPO -RA SCT014 GRN
Pressure 29.86 in
Visibility 6.2 miles
Clouds Mostly Cloudy 1800 ft
Dew Point 48 °F
Humidity 82%
Rainfall 0.00 in
Snow Depth Not available.
7:05 AM 5:24 PM
Waning Crescent, 25% visible
METAR EGXC 211450Z 21010KT 9999 BKN018 12/09 Q1011 WHT TEMPO -RA SCT014 GRN

Get Your Daily Forecast Email!

Thanks for signing up!

Be on the lookout for a verification email in your inbox.

You'll start receiving the daily forecast at 8 AM.

×

10-Day Weather Forecast

×

Almanac

Astronomy

Feb. 21, 2017 Rise Set
Actual Time
Civil Twilight
Nautical Twilight
Astronomical Twilight
Moon
Length of Visible Light
Length of Day
Tomorrow will be .
, % of the Moon is Illuminated

Today's Extremes

Country Highs Country Lows

Community

WunderPhotos

Upload Photos

1,962,540 photos uploaded!

WunderBlog® & News

Nearby

Air Quality

  Air Quality AQ Index Pollutant
Not available.

Snow Depth

Station Depth Elevation

Earthquake Activity

City Distance Mag. Time & Date
Minimum magnitude displayed is 2.5.

Coastal Water Temperatures

Place Temperature

Stations

Nearby Weather Stations

Station Location Temp. Windchill Dew Point Humidity Wind Precip. Elev Updated Type